Terminal Aerodrome Forecast
Issued by NWS

Home | Current Version | Previous Version | Text Only | Print | Product List | Glossary On
Versions: 1 2 3 4 5 6 7 8 9 10 11 12 13 14 15 16 17 18 19 20 21 22 23 24 25 26 27 28
000
FTAK31 PAFA 231327 AAA
TAFAOM
TAF AMD
PAOM 231327Z 2313/2412 08005KT P6SM FEW070 OVC100
     FM232300 16012KT P6SM OVC015
     FM240900 04005KT 4SM -SHRA BR BKN015 OVC025=

USA.gov is the U.S. government's official web portal to all federal, state and local government web resources and services.